createdAt,value
2019-03-06T00:00:16.537Z,79.71
2019-03-06T00:05:19.794Z,79.78
2019-03-06T00:10:24.322Z,81.15
2019-03-06T00:15:34.164Z,81.22
2019-03-06T00:20:36.675Z,81.08
2019-03-06T00:25:38.933Z,81.24
2019-03-06T00:30:43.953Z,81.49
2019-03-06T00:35:48.075Z,81.91
2019-03-06T00:41:08.127Z,82.13
2019-03-06T00:46:10.398Z,82.12
2019-03-06T00:51:12.422Z,82.13
2019-03-06T00:56:14.651Z,82.46
2019-03-06T01:01:16.791Z,82.46
2019-03-06T01:06:18.995Z,83.06
2019-03-06T01:11:21.431Z,83.32
2019-03-06T01:16:23.802Z,83.37
2019-03-06T01:21:33.787Z,83.76
2019-03-06T01:26:39.134Z,84.15
2019-03-06T01:31:44.147Z,84.25
2019-03-06T01:37:01.549Z,84.57
2019-03-06T01:42:23.668Z,84.59
2019-03-06T01:47:26.172Z,84.71
2019-03-06T01:52:31.102Z,84.82
2019-03-06T01:57:35.014Z,84.58
2019-03-06T02:02:40.229Z,85.02
2019-03-06T02:07:43.845Z,85.10
2019-03-06T02:12:46.116Z,85.27
2019-03-06T02:17:48.156Z,85.22
2019-03-06T02:22:51.640Z,85.25
2019-03-06T02:27:56.827Z,84.73
2019-03-06T02:33:01.567Z,85.00
2019-03-06T02:38:06.482Z,84.97
2019-03-06T02:43:10.939Z,84.89
2019-03-06T02:48:15.890Z,84.84
2019-03-06T02:53:19.671Z,85.39
2019-03-06T02:58:25.347Z,85.49
2019-03-06T03:03:45.637Z,85.36
2019-03-06T03:08:49.691Z,85.23
2019-03-06T03:13:53.673Z,85.22
2019-03-06T03:18:57.256Z,84.93
2019-03-06T03:23:59.504Z,85.31
2019-03-06T03:29:01.534Z,85.17
2019-03-06T03:34:03.583Z,85.12
2019-03-06T03:39:06.991Z,85.45
2019-03-06T03:44:09.085Z,85.09
2019-03-06T03:49:13.365Z,84.80
2019-03-06T03:54:17.406Z,84.59
2019-03-06T03:59:21.916Z,84.59
2019-03-06T04:04:24.080Z,84.35
2019-03-06T04:09:26.178Z,83.98
2019-03-06T04:14:28.472Z,83.84
2019-03-06T04:19:30.563Z,83.83
2019-03-06T04:24:33.099Z,83.88
2019-03-06T04:29:36.987Z,83.99
2019-03-06T04:34:42.166Z,84.14
2019-03-06T04:39:46.191Z,84.09
2019-03-06T04:44:48.350Z,83.97
2019-03-06T04:49:52.994Z,84.22
2019-03-06T04:54:55.354Z,84.11
2019-03-06T04:59:57.419Z,83.81
2019-03-06T05:05:06.685Z,83.64
2019-03-06T05:10:08.825Z,83.29
2019-03-06T05:15:12.302Z,83.42
2019-03-06T05:20:14.327Z,83.48
2019-03-06T05:25:17.734Z,83.31
2019-03-06T05:36:19.469Z,83.59
2019-03-06T05:41:21.492Z,82.96
2019-03-06T05:46:25.131Z,82.51
2019-03-06T05:51:30.095Z,82.74
2019-03-06T05:56:32.137Z,82.11
2019-03-06T06:01:37.213Z,81.78
2019-03-06T06:06:39.509Z,81.56
2019-03-06T06:11:45.638Z,81.56
2019-03-06T06:16:50.549Z,81.44
2019-03-06T06:22:05.561Z,81.24
2019-03-06T06:27:07.835Z,81.53
2019-03-06T06:32:09.882Z,81.82
2019-03-06T06:37:11.966Z,81.56
2019-03-06T06:42:16.432Z,81.06
2019-03-06T06:47:18.692Z,80.90
2019-03-06T06:52:58.360Z,80.46
2019-03-06T06:58:35.897Z,80.17
2019-03-06T07:04:40.361Z,79.90
2019-03-06T07:10:00.792Z,79.25
2019-03-06T07:15:37.805Z,78.39
2019-03-06T07:20:51.958Z,78.41
2019-03-06T07:26:07.338Z,76.97
2019-03-06T07:31:16.329Z,76.90
2019-03-06T07:36:39.537Z,76.26
2019-03-06T07:41:53.096Z,74.99
2019-03-06T07:47:24.397Z,74.47
2019-03-06T07:52:51.922Z,74.13
2019-03-06T07:58:32.907Z,73.57
2019-03-06T08:03:48.048Z,73.58
2019-03-06T08:08:53.221Z,72.50
2019-03-06T08:14:01.048Z,72.34
2019-03-06T08:19:12.763Z,72.03
2019-03-06T08:24:41.518Z,71.25
2019-03-06T08:29:47.706Z,70.18
2019-03-06T08:34:49.850Z,69.76
2019-03-06T08:39:51.909Z,69.93
2019-03-06T08:44:54.245Z,68.71
2019-03-06T08:50:08.526Z,67.86
2019-03-06T08:55:35.363Z,67.56
2019-03-06T09:01:00.553Z,67.71
2019-03-06T09:06:11.699Z,68.69
2019-03-06T09:11:26.355Z,68.00
2019-03-06T09:17:06.790Z,67.47
2019-03-06T09:22:22.013Z,67.46
2019-03-06T09:27:36.726Z,66.91
2019-03-06T09:33:04.016Z,67.40
2019-03-06T09:38:33.055Z,66.01
2019-03-06T09:44:07.183Z,69.34
2019-03-06T09:49:17.781Z,69.37
2019-03-06T09:54:49.474Z,68.87
2019-03-06T09:59:58.330Z,67.94
2019-03-06T10:05:26.119Z,65.37
2019-03-06T10:10:57.214Z,65.13
2019-03-06T10:16:02.773Z,63.98
2019-03-06T10:21:04.799Z,63.28
2019-03-06T10:26:11.544Z,65.44
2019-03-06T10:31:15.167Z,63.50
2019-03-06T10:36:17.216Z,63.50
2019-03-06T10:41:21.305Z,61.67
2019-03-06T10:46:23.640Z,61.69
2019-03-06T10:51:28.538Z,61.69
2019-03-06T10:56:34.658Z,62.82
2019-03-06T11:01:39.496Z,62.82
2019-03-06T11:06:46.496Z,62.46
2019-03-06T11:11:48.551Z,62.65
2019-03-06T11:16:50.794Z,61.44
2019-03-06T11:21:56.166Z,62.20
2019-03-06T11:26:58.687Z,62.37
2019-03-06T11:32:02.207Z,61.84
2019-03-06T11:37:05.138Z,63.39
2019-03-06T11:42:08.040Z,65.08
2019-03-06T11:47:13.041Z,64.08
2019-03-06T11:52:15.244Z,62.77
2019-03-06T11:57:18.967Z,61.61
2019-03-06T12:02:24.143Z,63.42
2019-03-06T12:07:30.659Z,63.04
2019-03-06T12:12:38.699Z,63.55
2019-03-06T12:17:40.972Z,63.37
2019-03-06T12:22:43.403Z,63.37
2019-03-06T12:27:45.716Z,63.61
2019-03-06T12:32:47.802Z,63.75
2019-03-06T12:37:49.981Z,64.39
2019-03-06T12:42:52.110Z,64.06
2019-03-06T12:47:55.659Z,64.24
2019-03-06T12:53:00.188Z,63.84
2019-03-06T12:58:02.648Z,65.43
2019-03-06T13:03:04.775Z,67.73
2019-03-06T13:08:19.631Z,67.19
2019-03-06T13:13:20.748Z,67.13
2019-03-06T13:18:22.881Z,67.86
2019-03-06T13:23:24.916Z,66.08
2019-03-06T13:28:27.891Z,66.08
2019-03-06T13:33:43.828Z,65.75
2019-03-06T13:38:54.754Z,64.93
2019-03-06T13:43:52.455Z,64.49
2019-03-06T13:48:56.762Z,64.37
2019-03-06T13:54:03.738Z,64.26
2019-03-06T13:59:08.246Z,64.00
2019-03-06T14:04:16.081Z,64.00
2019-03-06T14:09:20.640Z,63.35
2019-03-06T14:14:23.133Z,63.35
2019-03-06T14:19:25.187Z,64.13
2019-03-06T14:24:28.575Z,63.86
2019-03-06T14:29:30.608Z,63.20
2019-03-06T14:34:32.811Z,63.26
2019-03-06T14:39:35.742Z,62.80
2019-03-06T14:44:38.054Z,63.07
2019-03-06T14:49:40.242Z,63.07
2019-03-06T14:54:45.947Z,62.11
2019-03-06T14:59:48.083Z,62.12
2019-03-06T15:04:54.255Z,60.60
2019-03-06T15:09:56.445Z,60.04
2019-03-06T15:15:07.500Z,60.08
2019-03-06T15:20:12.162Z,60.24
2019-03-06T15:25:16.744Z,60.71
2019-03-06T15:30:20.632Z,60.48
2019-03-06T15:35:23.220Z,60.62
2019-03-06T15:40:26.691Z,61.11
2019-03-06T15:45:32.759Z,60.87
2019-03-06T15:50:39.300Z,60.87
2019-03-06T15:55:45.590Z,60.87
2019-03-06T16:00:51.208Z,61.47
2019-03-06T16:05:53.413Z,61.28
2019-03-06T16:10:55.493Z,61.95
2019-03-06T16:15:57.605Z,62.77
2019-03-06T16:20:59.884Z,63.70
2019-03-06T16:26:04.285Z,64.44
2019-03-06T16:31:10.266Z,64.93
2019-03-06T16:36:16.624Z,64.78
2019-03-06T16:41:26.145Z,64.76
2019-03-06T16:46:28.576Z,63.97
2019-03-06T16:51:30.659Z,63.97
2019-03-06T16:56:33.913Z,64.77
2019-03-06T17:17:38.929Z,62.22
2019-03-06T17:22:46.645Z,65.77
2019-03-06T17:27:52.704Z,65.40
2019-03-06T17:33:03.878Z,66.54
2019-03-06T17:38:14.198Z,66.38
2019-03-06T17:43:19.026Z,67.41
2019-03-06T17:48:24.127Z,68.69
2019-03-06T17:53:30.252Z,69.99
2019-03-06T17:58:33.100Z,71.95
2019-03-06T18:03:51.479Z,71.99
2019-03-06T18:08:53.308Z,72.91
2019-03-06T18:13:59.006Z,73.21
2019-03-06T18:19:01.079Z,73.21
2019-03-06T18:24:08.026Z,72.45
2019-03-06T18:29:10.124Z,72.18
2019-03-06T18:34:13.645Z,71.68
2019-03-06T18:39:22.037Z,71.63
2019-03-06T18:44:24.444Z,71.18
2019-03-06T18:49:26.578Z,71.54
2019-03-06T18:54:28.956Z,71.43
2019-03-06T18:59:31.010Z,71.52
2019-03-06T19:04:34.130Z,71.43
2019-03-06T19:09:36.252Z,71.52
2019-03-06T19:14:45.047Z,71.79
2019-03-06T19:19:47.123Z,71.69
2019-03-06T19:24:49.694Z,72.52
2019-03-06T19:29:53.017Z,72.66
2019-03-06T19:34:55.974Z,71.88
2019-03-06T19:39:58.349Z,72.17
2019-03-06T19:45:01.783Z,71.86
2019-03-06T19:50:07.602Z,71.86
2019-03-06T19:55:12.335Z,72.23
2019-03-06T20:00:15.248Z,72.28
2019-03-06T20:05:21.149Z,73.10
2019-03-06T20:10:24.428Z,73.62
2019-03-06T20:15:26.667Z,73.10
2019-03-06T20:20:28.709Z,73.25
2019-03-06T20:25:31.471Z,73.20
2019-03-06T20:30:35.972Z,73.48
2019-03-06T20:35:38.820Z,73.46
2019-03-06T20:40:44.071Z,73.26
2019-03-06T20:45:50.403Z,73.93
2019-03-06T20:50:55.006Z,73.92
2019-03-06T20:55:58.510Z,72.43
2019-03-06T21:01:00.525Z,72.43
2019-03-06T21:06:07.442Z,72.91
2019-03-06T21:11:09.446Z,73.27
2019-03-06T21:16:14.038Z,72.84
2019-03-06T21:21:20.807Z,73.54
2019-03-06T21:26:23.225Z,73.71
2019-03-06T21:31:28.340Z,74.38
2019-03-06T21:36:30.851Z,74.75
2019-03-06T21:41:32.879Z,74.37
2019-03-06T21:46:35.125Z,74.27
2019-03-06T21:51:37.231Z,74.86
2019-03-06T21:56:39.542Z,75.67
2019-03-06T22:01:46.152Z,76.79
2019-03-06T22:06:49.174Z,76.79
2019-03-06T22:11:55.825Z,76.18
2019-03-06T22:16:57.962Z,76.34
2019-03-06T22:22:00.105Z,76.78
2019-03-06T22:27:02.174Z,76.43
2019-03-06T22:32:09.667Z,77.47
2019-03-06T22:37:12.679Z,77.30
2019-03-06T22:42:14.947Z,77.08
2019-03-06T22:47:17.378Z,78.03
2019-03-06T22:52:22.875Z,77.44
2019-03-06T22:57:26.598Z,78.11
2019-03-06T23:02:30.038Z,77.75
2019-03-06T23:07:32.422Z,77.70
2019-03-06T23:12:34.886Z,77.92
2019-03-06T23:17:36.960Z,77.77
2019-03-06T23:22:41.660Z,77.38
2019-03-06T23:27:45.544Z,77.67
2019-03-06T23:32:48.793Z,77.04
2019-03-06T23:37:55.288Z,77.12
2019-03-06T23:42:58.905Z,76.80
2019-03-06T23:48:00.922Z,76.24
2019-03-06T23:53:08.551Z,77.33
2019-03-06T23:58:13.546Z,77.15
